createdAt,value
2017-12-12T00:00:43.693Z,983.21
2017-12-12T00:01:43.787Z,983.28
2017-12-12T00:02:43.618Z,983.41
2017-12-12T00:03:43.700Z,983.44
2017-12-12T00:04:43.560Z,983.41
2017-12-12T00:05:43.728Z,983.46
2017-12-12T00:06:43.487Z,983.50
2017-12-12T00:07:43.631Z,983.50
2017-12-12T00:08:43.419Z,983.62
2017-12-12T00:09:43.453Z,983.63
2017-12-12T00:10:43.349Z,983.65
2017-12-12T00:11:43.467Z,983.70
2017-12-12T00:12:43.281Z,983.67
2017-12-12T00:13:43.254Z,983.72
2017-12-12T00:14:43.214Z,983.79
2017-12-12T00:15:46.104Z,983.81
2017-12-12T00:16:43.150Z,983.87
2017-12-12T00:17:44.493Z,983.86
2017-12-12T00:18:43.074Z,983.93
2017-12-12T00:19:43.045Z,983.97
2017-12-12T00:20:43.016Z,984.07
2017-12-12T00:21:43.013Z,984.10
2017-12-12T00:22:42.942Z,984.12
2017-12-12T00:23:43.026Z,984.17
2017-12-12T00:24:42.878Z,984.22
2017-12-12T00:25:42.951Z,984.21
2017-12-12T00:26:42.804Z,984.36
2017-12-12T00:27:42.847Z,984.33
2017-12-12T00:28:42.737Z,984.42
2017-12-12T00:29:42.758Z,984.44
2017-12-12T00:30:42.666Z,984.46
2017-12-12T00:31:42.670Z,984.46
2017-12-12T00:32:42.601Z,984.49
2017-12-12T00:33:42.683Z,984.53
2017-12-12T00:34:42.532Z,984.57
2017-12-12T00:35:42.597Z,984.66
2017-12-12T00:36:42.462Z,984.72
2017-12-12T00:37:42.508Z,984.73
2017-12-12T00:38:42.390Z,984.78
2017-12-12T00:39:42.417Z,984.81
2017-12-12T00:40:42.328Z,984.84
2017-12-12T00:41:42.329Z,984.92
2017-12-12T00:42:42.260Z,984.94
2017-12-12T00:43:42.343Z,984.96
2017-12-12T00:44:42.190Z,984.99
2017-12-12T00:45:42.252Z,985.03
2017-12-12T00:46:42.119Z,985.02
2017-12-12T00:47:42.164Z,985.07
2017-12-12T00:48:42.051Z,985.14
2017-12-12T00:49:42.077Z,985.20
2017-12-12T00:50:41.981Z,985.25
2017-12-12T00:51:41.988Z,985.23
2017-12-12T00:52:41.915Z,985.26
2017-12-12T00:53:42.001Z,985.31
2017-12-12T00:54:41.874Z,985.34
2017-12-12T00:55:41.911Z,985.27
2017-12-12T00:56:41.784Z,985.40
2017-12-12T00:57:41.823Z,985.43
2017-12-12T00:58:41.708Z,985.46
2017-12-12T00:59:41.736Z,985.47
2017-12-12T01:00:41.645Z,985.53
2017-12-12T01:01:41.644Z,985.54
2017-12-12T01:02:41.574Z,985.58
2017-12-12T01:03:41.660Z,985.63
2017-12-12T01:04:41.515Z,985.70
2017-12-12T01:05:41.569Z,985.68
2017-12-12T01:06:41.437Z,985.77
2017-12-12T01:07:41.482Z,985.81
2017-12-12T01:08:41.366Z,985.85
2017-12-12T01:09:41.391Z,985.90
2017-12-12T01:10:41.305Z,985.92
2017-12-12T01:11:41.304Z,985.97
2017-12-12T01:12:41.244Z,986.02
2017-12-12T01:13:41.215Z,986.01
2017-12-12T01:14:41.164Z,986.05
2017-12-12T01:15:41.227Z,986.12
2017-12-12T01:16:41.095Z,986.14
2017-12-12T01:17:41.139Z,986.26
2017-12-12T01:18:41.029Z,986.23
2017-12-12T01:19:41.049Z,986.31
2017-12-12T01:20:40.964Z,986.36
2017-12-12T01:21:40.964Z,986.39
2017-12-12T01:22:40.890Z,986.46
2017-12-12T01:23:40.876Z,986.53
2017-12-12T01:24:40.827Z,986.53
2017-12-12T01:25:40.885Z,986.56
2017-12-12T01:26:40.758Z,986.56
2017-12-12T01:27:40.797Z,986.58
2017-12-12T01:28:40.721Z,986.67
2017-12-12T01:29:40.709Z,986.69
2017-12-12T01:30:40.622Z,986.75
2017-12-12T01:31:40.618Z,986.75
2017-12-12T01:32:40.551Z,986.88
2017-12-12T01:33:40.635Z,986.88
2017-12-12T01:34:40.484Z,986.93
2017-12-12T01:35:40.548Z,987.00
2017-12-12T01:36:40.420Z,987.05
2017-12-12T01:37:40.454Z,986.99
2017-12-12T01:38:40.351Z,987.08
2017-12-12T01:39:40.372Z,987.20
2017-12-12T01:40:40.285Z,987.23
2017-12-12T01:41:40.288Z,987.25
2017-12-12T01:42:40.217Z,987.32
2017-12-12T01:43:40.316Z,987.43
2017-12-12T01:44:40.147Z,987.37
2017-12-12T01:45:40.207Z,987.42
2017-12-12T01:46:40.077Z,987.49
2017-12-12T01:47:40.112Z,987.55
2017-12-12T01:48:40.011Z,987.63
2017-12-12T01:49:40.028Z,987.69
2017-12-12T01:50:39.941Z,987.73
2017-12-12T01:51:39.965Z,987.77
2017-12-12T01:52:39.870Z,987.87
2017-12-12T01:53:39.854Z,987.89
2017-12-12T01:54:39.810Z,987.96
2017-12-12T01:55:39.867Z,988.04
2017-12-12T01:56:39.735Z,988.02
2017-12-12T01:57:39.775Z,988.10
2017-12-12T01:58:39.670Z,988.10
2017-12-12T01:59:39.683Z,988.11
2017-12-12T02:00:39.604Z,988.21
2017-12-12T02:01:39.605Z,988.23
2017-12-12T02:02:39.530Z,988.34
2017-12-12T02:03:39.508Z,988.31
2017-12-12T02:04:39.471Z,988.40
2017-12-12T02:05:39.525Z,988.47
2017-12-12T02:06:39.396Z,988.49
2017-12-12T02:07:39.450Z,988.63
2017-12-12T02:08:39.329Z,988.72
2017-12-12T02:09:39.351Z,988.76
2017-12-12T02:10:39.261Z,988.71
2017-12-12T02:11:39.264Z,988.74
2017-12-12T02:12:39.185Z,988.75
2017-12-12T02:13:39.169Z,988.86
2017-12-12T02:14:39.125Z,988.89
2017-12-12T02:15:39.189Z,988.89
2017-12-12T02:16:39.050Z,989.00
2017-12-12T02:17:39.096Z,989.04
2017-12-12T02:18:38.987Z,989.09
2017-12-12T02:19:39.006Z,989.10
2017-12-12T02:20:38.920Z,989.14
2017-12-12T02:21:38.931Z,989.20
2017-12-12T02:22:38.847Z,989.24
2017-12-12T02:23:38.844Z,989.28
2017-12-12T02:24:38.785Z,989.36
2017-12-12T02:25:38.843Z,989.41
2017-12-12T02:26:38.710Z,989.51
2017-12-12T02:27:38.754Z,989.56
2017-12-12T02:28:38.645Z,989.55
2017-12-12T02:29:38.665Z,989.55
2017-12-12T02:30:38.576Z,989.56
2017-12-12T02:31:38.576Z,989.52
2017-12-12T02:32:38.506Z,989.60
2017-12-12T02:33:38.497Z,989.65
2017-12-12T02:34:38.440Z,989.65
2017-12-12T02:35:38.497Z,989.68
2017-12-12T02:36:38.372Z,989.69
2017-12-12T02:37:38.413Z,989.70
2017-12-12T02:38:38.313Z,989.72
2017-12-12T02:39:38.322Z,989.78
2017-12-12T02:40:38.267Z,989.80
2017-12-12T02:41:52.877Z,989.79
2017-12-12T02:42:38.174Z,989.84
2017-12-12T02:43:38.144Z,989.94
2017-12-12T02:44:38.102Z,989.96
2017-12-12T02:45:38.161Z,989.98
2017-12-12T02:46:38.032Z,990.08
2017-12-12T02:47:38.073Z,990.07
2017-12-12T02:48:37.966Z,990.18
2017-12-12T02:49:37.986Z,990.17
2017-12-12T02:50:37.899Z,990.26
2017-12-12T02:51:37.896Z,990.25
2017-12-12T02:52:37.834Z,990.30
2017-12-12T02:53:37.909Z,990.33
2017-12-12T02:54:37.765Z,990.39
2017-12-12T02:55:37.820Z,990.39
2017-12-12T02:56:37.695Z,990.41
2017-12-12T02:57:37.733Z,990.39
2017-12-12T02:58:37.627Z,990.45
2017-12-12T02:59:37.647Z,990.44
2017-12-12T03:00:37.560Z,990.51
2017-12-12T03:01:37.555Z,990.54
2017-12-12T03:02:37.489Z,990.58
2017-12-12T03:03:37.569Z,990.61
2017-12-12T03:04:37.424Z,990.69
2017-12-12T03:05:37.480Z,990.70
2017-12-12T03:06:37.357Z,990.80
2017-12-12T03:07:37.386Z,990.76
2017-12-12T03:08:37.289Z,990.88
2017-12-12T03:09:37.303Z,990.83
2017-12-12T03:10:37.219Z,990.89
2017-12-12T03:11:37.210Z,990.97
2017-12-12T03:12:37.157Z,991.07
2017-12-12T03:13:37.226Z,991.15
2017-12-12T03:14:37.085Z,991.08
2017-12-12T03:15:37.138Z,991.14
2017-12-12T03:16:37.016Z,991.17
2017-12-12T03:17:37.066Z,991.23
2017-12-12T03:18:36.949Z,991.26
2017-12-12T03:19:36.960Z,991.28
2017-12-12T03:20:36.882Z,991.33
2017-12-12T03:21:36.872Z,991.40
2017-12-12T03:22:36.817Z,991.40
2017-12-12T03:23:36.880Z,991.53
2017-12-12T03:24:36.747Z,991.56
2017-12-12T03:25:36.797Z,991.60
2017-12-12T03:26:36.705Z,991.58
2017-12-12T03:27:36.712Z,991.64
2017-12-12T03:28:36.611Z,991.66
2017-12-12T03:29:36.624Z,991.65
2017-12-12T03:30:36.543Z,991.58
2017-12-12T03:31:36.531Z,991.72
2017-12-12T03:32:36.476Z,991.79
2017-12-12T03:33:36.548Z,991.80
2017-12-12T03:34:36.407Z,991.84
2017-12-12T03:35:36.457Z,991.94
2017-12-12T03:36:36.338Z,991.97
2017-12-12T03:37:36.369Z,992.04
2017-12-12T03:38:36.272Z,992.10
2017-12-12T03:39:36.287Z,992.11
2017-12-12T03:40:36.202Z,992.13
2017-12-12T03:41:36.197Z,992.13
2017-12-12T03:42:36.135Z,992.13
2017-12-12T03:43:36.214Z,992.14
2017-12-12T03:44:36.073Z,992.16
2017-12-12T03:45:36.119Z,992.27
2017-12-12T03:46:35.999Z,992.35
2017-12-12T03:47:36.033Z,992.38
2017-12-12T03:48:35.932Z,992.46
2017-12-12T03:49:35.940Z,992.38
2017-12-12T03:50:35.865Z,992.47
2017-12-12T03:51:35.850Z,992.47
2017-12-12T03:52:35.794Z,992.66
2017-12-12T03:53:35.878Z,992.64
2017-12-12T03:54:35.721Z,992.66
2017-12-12T03:55:35.776Z,992.70
2017-12-12T03:56:35.654Z,992.74
2017-12-12T03:57:35.686Z,992.80
2017-12-12T03:58:35.585Z,992.89
2017-12-12T03:59:35.598Z,992.90
2017-12-12T04:00:35.526Z,992.96
2017-12-12T04:01:35.508Z,993.03
2017-12-12T04:02:35.451Z,992.99
2017-12-12T04:03:35.519Z,993.05
2017-12-12T04:04:35.396Z,993.08
2017-12-12T04:05:35.438Z,993.15
2017-12-12T04:06:35.319Z,993.24
2017-12-12T04:07:35.346Z,993.22
2017-12-12T04:08:35.248Z,993.26
2017-12-12T04:09:35.259Z,993.34
2017-12-12T04:10:35.182Z,993.36
2017-12-12T04:11:35.169Z,993.39
2017-12-12T04:12:35.115Z,993.37
2017-12-12T04:13:35.185Z,993.44
2017-12-12T04:14:35.046Z,993.47
2017-12-12T04:15:35.092Z,993.47
2017-12-12T04:16:34.978Z,993.49
2017-12-12T04:17:35.008Z,993.61
2017-12-12T04:18:34.913Z,993.63
2017-12-12T04:19:34.917Z,993.63
2017-12-12T04:20:34.841Z,993.68
2017-12-12T04:21:34.827Z,993.70
2017-12-12T04:22:34.779Z,993.72
2017-12-12T04:23:34.840Z,993.69
2017-12-12T04:24:34.710Z,993.74
2017-12-12T04:25:34.749Z,993.76
2017-12-12T04:26:34.640Z,993.83
2017-12-12T04:27:34.660Z,993.88
2017-12-12T04:28:34.574Z,993.85
2017-12-12T04:29:34.625Z,993.91
2017-12-12T04:30:34.501Z,993.92
2017-12-12T04:31:34.487Z,993.99
2017-12-12T04:32:34.432Z,994.01
2017-12-12T04:33:34.501Z,994.14
2017-12-12T04:34:34.361Z,994.12
2017-12-12T04:35:34.411Z,994.22
2017-12-12T04:36:34.296Z,994.26
2017-12-12T04:37:34.323Z,994.30
2017-12-12T04:38:34.230Z,994.31
2017-12-12T04:39:34.234Z,994.30
2017-12-12T04:40:34.166Z,994.30
2017-12-12T04:41:34.145Z,994.50
2017-12-12T04:42:34.093Z,994.41
2017-12-12T04:43:34.157Z,994.45
2017-12-12T04:44:34.027Z,994.49
2017-12-12T04:45:34.069Z,994.50
2017-12-12T04:46:33.957Z,994.49
2017-12-12T04:47:33.981Z,994.57
2017-12-12T04:48:33.888Z,994.55
2017-12-12T04:49:33.890Z,994.56
2017-12-12T04:50:33.826Z,994.55
2017-12-12T04:51:33.805Z,994.57
2017-12-12T04:52:33.754Z,994.69
2017-12-12T04:53:33.816Z,994.71
2017-12-12T04:54:33.687Z,994.77
2017-12-12T04:55:33.728Z,994.73
2017-12-12T04:56:33.618Z,994.76
2017-12-12T04:57:33.642Z,994.79
2017-12-12T04:58:33.547Z,994.86
2017-12-12T04:59:33.556Z,994.90
2017-12-12T05:00:33.487Z,994.92
2017-12-12T05:01:33.467Z,994.99
2017-12-12T05:02:33.410Z,994.90
2017-12-12T05:03:33.477Z,994.90
2017-12-12T05:04:33.344Z,994.91
2017-12-12T05:05:33.390Z,994.91
2017-12-12T05:06:33.275Z,995.02
2017-12-12T05:07:33.300Z,994.99
2017-12-12T05:08:33.205Z,995.08
2017-12-12T05:09:34.236Z,995.07
2017-12-12T05:10:33.148Z,995.06
2017-12-12T05:11:33.124Z,995.08
2017-12-12T05:12:33.068Z,995.05
2017-12-12T05:13:33.138Z,995.05
2017-12-12T05:14:33.002Z,995.10
2017-12-12T05:15:33.050Z,995.05
2017-12-12T05:16:32.937Z,995.11
2017-12-12T05:17:32.959Z,995.21
2017-12-12T05:18:32.874Z,995.25
2017-12-12T05:19:32.874Z,995.27
2017-12-12T05:20:32.800Z,995.31
2017-12-12T05:21:32.783Z,995.33
2017-12-12T05:22:32.726Z,995.34
2017-12-12T05:23:32.796Z,995.35
2017-12-12T05:24:32.660Z,995.39
2017-12-12T05:25:32.708Z,995.46
2017-12-12T05:26:32.595Z,995.51
2017-12-12T05:27:32.618Z,995.60
2017-12-12T05:28:32.528Z,995.63
2017-12-12T05:29:32.533Z,995.65
2017-12-12T05:30:32.456Z,995.67
2017-12-12T05:31:32.483Z,995.72
2017-12-12T05:32:32.389Z,995.78
2017-12-12T05:33:32.457Z,995.77
2017-12-12T05:34:32.319Z,995.86
2017-12-12T05:35:32.363Z,995.86
2017-12-12T05:36:32.256Z,995.90
2017-12-12T05:37:32.278Z,995.90
2017-12-12T05:38:32.186Z,995.96
2017-12-12T05:39:32.192Z,995.92
2017-12-12T05:40:32.116Z,996.02
2017-12-12T05:41:32.096Z,995.95
2017-12-12T05:42:32.051Z,996.02
2017-12-12T05:43:32.113Z,996.00
2017-12-12T05:44:31.978Z,996.00
2017-12-12T05:45:32.023Z,996.07
2017-12-12T05:46:31.916Z,996.08
2017-12-12T05:47:31.937Z,996.12
2017-12-12T05:48:31.846Z,996.16
2017-12-12T05:49:31.847Z,996.11
2017-12-12T05:50:31.778Z,996.19
2017-12-12T05:51:31.758Z,996.21
2017-12-12T05:52:31.712Z,996.18
2017-12-12T05:53:31.782Z,996.18
2017-12-12T05:54:31.638Z,996.27
2017-12-12T05:55:31.691Z,996.30
2017-12-12T05:56:31.574Z,996.39
2017-12-12T05:57:31.595Z,996.43
2017-12-12T05:58:31.508Z,996.46
2017-12-12T05:59:31.508Z,996.51
2017-12-12T06:00:31.437Z,996.49
2017-12-12T06:01:31.418Z,996.59
2017-12-12T06:02:31.367Z,996.59
2017-12-12T06:03:31.431Z,996.65
2017-12-12T06:04:31.305Z,996.73
2017-12-12T06:05:31.343Z,996.75
2017-12-12T06:06:31.234Z,996.82
2017-12-12T06:07:31.256Z,996.80
2017-12-12T06:08:31.163Z,996.82
2017-12-12T06:09:31.165Z,996.79
2017-12-12T06:10:31.101Z,996.87
2017-12-12T06:11:31.079Z,996.83
2017-12-12T06:12:31.035Z,996.96
2017-12-12T06:13:31.094Z,996.99
2017-12-12T06:14:30.969Z,996.97
2017-12-12T06:15:31.003Z,997.01
2017-12-12T06:16:30.901Z,997.02
2017-12-12T06:17:30.917Z,997.07
2017-12-12T06:18:30.824Z,997.13
2017-12-12T06:19:30.828Z,997.16
2017-12-12T06:20:30.761Z,997.15
2017-12-12T06:21:30.849Z,997.25
2017-12-12T06:22:30.700Z,997.24
2017-12-12T06:23:30.761Z,997.27
2017-12-12T06:24:30.625Z,997.41
2017-12-12T06:25:30.662Z,997.33
2017-12-12T06:26:30.553Z,997.36
2017-12-12T06:27:30.578Z,997.43
2017-12-12T06:28:30.494Z,997.41
2017-12-12T06:29:30.526Z,997.43
2017-12-12T06:30:30.423Z,997.48
2017-12-12T06:31:30.496Z,997.50
2017-12-12T06:32:30.353Z,997.49
2017-12-12T06:33:30.411Z,997.53
2017-12-12T06:34:30.284Z,997.69
2017-12-12T06:35:30.321Z,997.59
2017-12-12T06:36:30.215Z,997.69
2017-12-12T06:37:30.233Z,997.70
2017-12-12T06:38:30.149Z,997.73
2017-12-12T06:39:30.144Z,997.83
2017-12-12T06:40:30.082Z,997.84
2017-12-12T06:41:30.154Z,997.88
2017-12-12T06:42:30.011Z,997.88
2017-12-12T06:43:30.067Z,997.90
2017-12-12T06:44:29.989Z,997.90
2017-12-12T06:45:29.982Z,997.98
2017-12-12T06:46:29.882Z,998.04
2017-12-12T06:47:29.890Z,998.09
2017-12-12T06:48:29.808Z,998.04
2017-12-12T06:49:29.800Z,998.18
2017-12-12T06:50:29.741Z,998.09
2017-12-12T06:51:29.816Z,998.07
2017-12-12T06:52:29.676Z,998.08
2017-12-12T06:53:29.723Z,998.10
2017-12-12T06:54:29.609Z,998.18
2017-12-12T06:55:29.639Z,998.17
2017-12-12T06:56:29.539Z,998.21
2017-12-12T06:57:29.555Z,998.24
2017-12-12T06:58:29.475Z,998.26
2017-12-12T06:59:29.464Z,998.29
2017-12-12T07:00:29.409Z,998.26
2017-12-12T07:01:29.478Z,998.35
2017-12-12T07:02:29.339Z,998.48
2017-12-12T07:03:29.391Z,998.50
2017-12-12T07:04:29.273Z,998.62
2017-12-12T07:05:29.305Z,998.42
2017-12-12T07:06:29.209Z,998.51
2017-12-12T07:07:29.212Z,998.49
2017-12-12T07:08:29.144Z,998.44
2017-12-12T07:09:29.128Z,998.51
2017-12-12T07:10:29.072Z,998.53
2017-12-12T07:11:29.038Z,998.58
2017-12-12T07:12:29.149Z,998.55
2017-12-12T07:13:28.964Z,998.52
2017-12-12T07:14:29.058Z,998.58
2017-12-12T07:15:28.901Z,998.60
2017-12-12T07:16:28.872Z,998.65
2017-12-12T07:17:28.831Z,998.69
2017-12-12T07:18:28.878Z,998.74
2017-12-12T07:19:28.760Z,998.85
2017-12-12T07:20:28.895Z,998.88
2017-12-12T07:21:28.697Z,998.92
2017-12-12T07:22:28.805Z,998.98
2017-12-12T07:23:28.627Z,998.99
2017-12-12T07:24:28.717Z,998.95
2017-12-12T07:25:28.564Z,998.97
2017-12-12T07:26:28.627Z,999.07
2017-12-12T07:27:28.498Z,999.11
2017-12-12T07:28:28.641Z,999.23
2017-12-12T07:29:28.426Z,999.21
2017-12-12T07:30:28.553Z,999.30
2017-12-12T07:31:28.367Z,999.27
2017-12-12T07:32:28.464Z,999.27
2017-12-12T07:33:28.295Z,999.26
2017-12-12T07:34:28.376Z,999.34
2017-12-12T07:35:28.240Z,999.40
2017-12-12T07:36:28.291Z,999.40
2017-12-12T07:37:28.154Z,999.45
2017-12-12T07:38:28.300Z,999.50
2017-12-12T07:39:28.086Z,999.57
2017-12-12T07:40:28.215Z,999.54
2017-12-12T07:41:28.024Z,999.63
2017-12-12T07:42:28.122Z,999.63
2017-12-12T07:43:27.949Z,999.68
2017-12-12T07:44:28.044Z,999.73
2017-12-12T07:45:27.888Z,999.76
2017-12-12T07:46:27.944Z,999.78
2017-12-12T07:47:27.838Z,999.82
2017-12-12T07:48:27.958Z,999.85
2017-12-12T07:49:27.761Z,999.90
2017-12-12T07:50:27.868Z,999.94
2017-12-12T07:51:27.689Z,1000.00
2017-12-12T07:52:27.794Z,999.99
2017-12-12T07:53:27.616Z,1000.03
2017-12-12T07:54:27.699Z,1000.09
2017-12-12T07:55:27.547Z,1000.06
2017-12-12T07:56:27.629Z,1000.12
2017-12-12T07:57:27.495Z,1000.18
2017-12-12T07:58:27.528Z,1000.19
2017-12-12T07:59:27.417Z,1000.18
2017-12-12T08:00:27.509Z,1000.17
2017-12-12T08:01:27.341Z,1000.21
2017-12-12T08:02:27.445Z,1000.21
2017-12-12T08:03:27.288Z,1000.22
2017-12-12T08:04:27.350Z,1000.28
2017-12-12T08:05:27.217Z,1000.30
2017-12-12T08:06:27.365Z,1000.30
2017-12-12T08:07:27.143Z,1000.31
2017-12-12T08:08:27.281Z,1000.31
2017-12-12T08:09:27.074Z,1000.35
2017-12-12T08:10:27.184Z,1000.39
2017-12-12T08:11:27.010Z,1000.40
2017-12-12T08:12:27.201Z,1000.38
2017-12-12T08:13:26.946Z,1000.40
2017-12-12T08:14:27.046Z,1000.39
2017-12-12T08:15:26.888Z,1000.39
2017-12-12T08:16:27.025Z,1000.38
2017-12-12T08:17:26.838Z,1000.41
2017-12-12T08:18:26.937Z,1000.49
2017-12-12T08:19:26.755Z,1000.48
2017-12-12T08:20:26.847Z,1000.52
2017-12-12T08:21:26.824Z,1000.56
2017-12-12T08:22:26.864Z,1000.53
2017-12-12T08:23:26.606Z,1000.56
2017-12-12T08:24:26.794Z,1000.59
2017-12-12T08:25:26.537Z,1000.56
2017-12-12T08:26:26.684Z,1000.64
2017-12-12T08:27:26.483Z,1000.66
2017-12-12T08:28:26.591Z,1000.71
2017-12-12T08:29:26.402Z,1000.76
2017-12-12T08:30:26.506Z,1000.72
2017-12-12T08:31:26.337Z,1000.80
2017-12-12T08:32:26.414Z,1000.72
2017-12-12T08:33:26.271Z,1000.85
2017-12-12T08:34:26.327Z,1000.80
2017-12-12T08:35:26.201Z,1000.85
2017-12-12T08:36:26.237Z,1000.83
2017-12-12T08:37:26.136Z,1000.87
2017-12-12T08:38:26.148Z,1000.84
2017-12-12T08:39:26.067Z,1000.83
2017-12-12T08:40:26.075Z,1000.85
2017-12-12T08:41:25.999Z,1000.85
2017-12-12T08:42:25.971Z,1000.91
2017-12-12T08:43:27.649Z,1000.94
2017-12-12T08:44:25.895Z,1001.01
2017-12-12T08:45:25.993Z,1001.00
2017-12-12T08:46:25.827Z,1001.09
2017-12-12T08:47:25.904Z,1001.05
2017-12-12T08:48:25.763Z,1001.15
2017-12-12T08:49:25.816Z,1001.19
2017-12-12T08:50:25.701Z,1001.22
2017-12-12T08:51:25.737Z,1001.26
2017-12-12T08:52:25.628Z,1001.25
2017-12-12T08:53:25.640Z,1001.29
2017-12-12T08:54:25.557Z,1001.35
2017-12-12T08:55:25.550Z,1001.34
2017-12-12T08:56:25.495Z,1001.40
2017-12-12T08:57:25.566Z,1001.38
2017-12-12T08:58:25.422Z,1001.37
2017-12-12T08:59:25.477Z,1001.48
2017-12-12T09:00:25.363Z,1001.46
2017-12-12T09:01:25.383Z,1001.45
2017-12-12T09:02:25.286Z,1001.55
2017-12-12T09:03:25.299Z,1001.52
2017-12-12T09:04:25.228Z,1001.54
2017-12-12T09:05:25.217Z,1001.59
2017-12-12T09:06:25.160Z,1001.60
2017-12-12T09:07:25.225Z,1001.67
2017-12-12T09:08:25.090Z,1001.76
2017-12-12T09:09:25.143Z,1001.68
2017-12-12T09:10:25.023Z,1001.75
2017-12-12T09:11:25.049Z,1001.79
2017-12-12T09:12:24.954Z,1001.83
2017-12-12T09:13:24.961Z,1001.90
2017-12-12T09:14:24.887Z,1001.82
2017-12-12T09:15:24.871Z,1001.78
2017-12-12T09:16:24.820Z,1001.81
2017-12-12T09:17:24.886Z,1001.85
2017-12-12T09:18:24.753Z,1001.87
2017-12-12T09:19:24.795Z,1001.97
2017-12-12T09:20:24.687Z,1001.87
2017-12-12T09:21:24.709Z,1001.93
2017-12-12T09:22:24.618Z,1001.90
2017-12-12T09:23:24.619Z,1002.00
2017-12-12T09:24:24.546Z,1002.02
2017-12-12T09:25:24.528Z,1002.18
2017-12-12T09:26:24.479Z,1002.11
2017-12-12T09:27:24.547Z,1002.13
2017-12-12T09:28:24.414Z,1002.20
2017-12-12T09:29:24.454Z,1002.23
2017-12-12T09:30:24.347Z,1002.27
2017-12-12T09:31:24.363Z,1002.20
2017-12-12T09:32:24.279Z,1002.24
2017-12-12T09:33:24.276Z,1002.23
2017-12-12T09:34:24.211Z,1002.33
2017-12-12T09:35:24.289Z,1002.31
2017-12-12T09:36:24.147Z,1002.32
2017-12-12T09:37:24.203Z,1002.32
2017-12-12T09:38:24.208Z,1002.37
2017-12-12T09:39:24.057Z,1002.39
2017-12-12T09:40:24.119Z,1002.44
2017-12-12T09:41:23.970Z,1002.39
2017-12-12T09:42:24.070Z,1002.46
2017-12-12T09:43:23.912Z,1002.48
2017-12-12T09:44:23.939Z,1002.45
2017-12-12T09:45:23.841Z,1002.45
2017-12-12T09:46:23.955Z,1002.52
2017-12-12T09:47:23.773Z,1002.52
2017-12-12T09:48:23.866Z,1002.56
2017-12-12T09:49:23.708Z,1002.57
2017-12-12T09:50:23.778Z,1002.61
2017-12-12T09:51:23.638Z,1002.60
2017-12-12T09:52:23.687Z,1002.65
2017-12-12T09:53:23.577Z,1002.69
2017-12-12T09:54:23.705Z,1002.72
2017-12-12T09:55:23.500Z,1002.68
2017-12-12T09:56:23.613Z,1002.78
2017-12-12T09:57:23.434Z,1002.77
2017-12-12T09:58:23.524Z,1002.77
2017-12-12T09:59:23.371Z,1002.79
2017-12-12T10:00:23.435Z,1002.79
2017-12-12T10:01:23.299Z,1002.86
2017-12-12T10:02:23.347Z,1002.86
2017-12-12T10:03:23.231Z,1002.90
2017-12-12T10:04:23.367Z,1002.98
2017-12-12T10:05:23.162Z,1002.94
2017-12-12T10:06:23.274Z,1003.00
2017-12-12T10:07:23.097Z,1002.94
2017-12-12T10:08:23.185Z,1003.02
2017-12-12T10:09:23.032Z,1003.01
2017-12-12T10:10:23.094Z,1002.97
2017-12-12T10:11:22.964Z,1003.04
2017-12-12T10:12:23.119Z,1003.03
2017-12-12T10:13:22.907Z,1003.04
2017-12-12T10:14:23.032Z,1003.04
2017-12-12T10:15:22.835Z,1003.08
2017-12-12T10:16:22.932Z,1003.10
2017-12-12T10:17:22.762Z,1003.10
2017-12-12T10:18:22.781Z,1003.15
2017-12-12T10:19:22.697Z,1003.08
2017-12-12T10:20:22.775Z,1003.07
2017-12-12T10:21:22.628Z,1003.01
2017-12-12T10:22:22.781Z,1003.06
2017-12-12T10:23:22.559Z,1003.08
2017-12-12T10:24:22.627Z,1003.07
2017-12-12T10:25:22.535Z,1003.08
2017-12-12T10:26:22.491Z,1003.11
2017-12-12T10:27:22.428Z,1003.06
2017-12-12T10:28:22.504Z,1003.11
2017-12-12T10:29:22.358Z,1003.15
2017-12-12T10:30:22.436Z,1003.15
2017-12-12T10:31:22.287Z,1003.19
2017-12-12T10:32:22.349Z,1003.19
2017-12-12T10:33:22.226Z,1003.21
2017-12-12T10:34:22.260Z,1003.24
2017-12-12T10:35:22.162Z,1003.27
2017-12-12T10:36:22.169Z,1003.33
2017-12-12T10:37:22.093Z,1003.29
2017-12-12T10:38:22.166Z,1003.44
2017-12-12T10:39:22.026Z,1003.33
2017-12-12T10:40:22.189Z,1003.38
2017-12-12T10:41:21.960Z,1003.43
2017-12-12T10:42:22.090Z,1003.44
2017-12-12T10:43:21.893Z,1003.44
2017-12-12T10:44:22.000Z,1003.51
2017-12-12T10:45:21.826Z,1003.58
2017-12-12T10:46:21.820Z,1003.56
2017-12-12T10:47:21.761Z,1003.59
2017-12-12T10:48:21.831Z,1003.62
2017-12-12T10:49:21.688Z,1003.62
2017-12-12T10:50:21.739Z,1003.62
2017-12-12T10:51:21.645Z,1003.56
2017-12-12T10:52:21.591Z,1003.58
2017-12-12T10:53:21.657Z,1003.65
2017-12-12T10:54:21.527Z,1003.59
2017-12-12T10:55:21.564Z,1003.68
2017-12-12T10:56:21.460Z,1003.65
2017-12-12T10:57:21.424Z,1003.65
2017-12-12T10:58:21.483Z,1003.75
2017-12-12T10:59:21.366Z,1003.72
2017-12-12T11:00:21.389Z,1003.74
2017-12-12T11:01:21.289Z,1003.75
2017-12-12T11:02:21.308Z,1003.77
2017-12-12T11:03:21.224Z,1003.81
2017-12-12T11:04:21.214Z,1003.82
2017-12-12T11:05:21.159Z,1003.79
2017-12-12T11:06:21.223Z,1003.76
2017-12-12T11:07:21.092Z,1003.75
2017-12-12T11:08:21.138Z,1003.75
2017-12-12T11:09:21.026Z,1003.77
2017-12-12T11:10:21.046Z,1003.80
2017-12-12T11:11:20.959Z,1003.79
2017-12-12T11:12:20.957Z,1003.83
2017-12-12T11:13:20.893Z,1003.84
2017-12-12T11:14:20.967Z,1003.86
2017-12-12T11:15:20.829Z,1003.95
2017-12-12T11:16:20.878Z,1004.00
2017-12-12T11:17:20.764Z,1003.96
2017-12-12T11:18:20.788Z,1003.91
2017-12-12T11:19:20.695Z,1003.96
2017-12-12T11:20:20.699Z,1004.04
2017-12-12T11:21:20.635Z,1004.38
2017-12-12T11:22:20.715Z,1004.10
2017-12-12T11:23:20.566Z,1004.04
2017-12-12T11:24:20.621Z,1004.00
2017-12-12T11:25:20.499Z,1004.03
2017-12-12T11:26:20.529Z,1004.04
2017-12-12T11:27:20.434Z,1004.09
2017-12-12T11:28:20.441Z,1004.06
2017-12-12T11:29:20.370Z,1004.07
2017-12-12T11:30:20.356Z,1004.02
2017-12-12T11:31:20.308Z,1004.09
2017-12-12T11:32:20.367Z,1004.07
2017-12-12T11:33:20.240Z,1004.21
2017-12-12T11:34:20.315Z,1004.17
2017-12-12T11:35:20.173Z,1004.20
2017-12-12T11:36:20.190Z,1004.19
2017-12-12T11:37:20.114Z,1004.17
2017-12-12T11:38:20.091Z,1004.17
2017-12-12T11:39:20.047Z,1004.15
2017-12-12T11:40:20.103Z,1004.22
2017-12-12T11:41:19.981Z,1004.17
2017-12-12T11:42:20.164Z,1004.17
2017-12-12T11:43:19.917Z,1004.15
2017-12-12T11:44:19.926Z,1004.25
2017-12-12T11:45:19.851Z,1004.22
2017-12-12T11:46:19.877Z,1004.28
2017-12-12T11:47:19.789Z,1004.30
2017-12-12T11:48:19.856Z,1004.38
2017-12-12T11:49:19.719Z,1004.29
2017-12-12T11:50:19.693Z,1004.29
2017-12-12T11:51:19.806Z,1004.47
2017-12-12T11:52:19.626Z,1004.33
2017-12-12T11:53:20.638Z,1004.28
2017-12-12T11:54:19.556Z,1004.28
2017-12-12T11:55:19.626Z,1004.24
2017-12-12T11:56:19.508Z,1004.30
2017-12-12T11:57:19.538Z,1004.31
2017-12-12T11:58:19.424Z,1004.30
2017-12-12T11:59:19.448Z,1004.35
2017-12-12T12:00:19.361Z,1004.36
2017-12-12T12:01:19.463Z,1004.41
2017-12-12T12:02:19.298Z,1004.43
2017-12-12T12:03:19.373Z,1004.41
2017-12-12T12:04:19.228Z,1004.42
2017-12-12T12:05:19.286Z,1004.45
2017-12-12T12:06:19.163Z,1004.46
2017-12-12T12:07:19.154Z,1004.43
2017-12-12T12:08:19.099Z,1004.48
2017-12-12T12:09:19.212Z,1004.46
2017-12-12T12:10:19.045Z,1004.48
2017-12-12T12:11:19.122Z,1004.46
2017-12-12T12:12:18.969Z,1004.50
2017-12-12T12:13:19.035Z,1004.46
2017-12-12T12:14:18.898Z,1004.47
2017-12-12T12:15:18.945Z,1004.51
2017-12-12T12:16:18.837Z,1004.55
2017-12-12T12:17:18.957Z,1004.53
2017-12-12T12:18:18.776Z,1004.58
2017-12-12T12:19:18.868Z,1004.59
2017-12-12T12:20:18.704Z,1004.59